createdAt,value
2018-10-06T00:02:21.545Z,5.87
2018-10-06T00:04:49.668Z,5.30
2018-10-06T00:07:17.816Z,5.90
2018-10-06T00:09:45.913Z,5.40
2018-10-06T00:12:14.033Z,5.80
2018-10-06T00:14:42.204Z,6.70
2018-10-06T00:17:10.390Z,6.13
2018-10-06T00:19:39.073Z,6.27
2018-10-06T00:22:07.208Z,6.23
2018-10-06T00:24:35.426Z,11.40
2018-10-06T00:27:03.537Z,6.40
2018-10-06T00:29:31.756Z,5.43
2018-10-06T00:31:59.900Z,11.90
2018-10-06T00:34:28.347Z,9.20
2018-10-06T00:36:56.504Z,6.60
2018-10-06T00:39:24.596Z,6.37
2018-10-06T00:41:52.827Z,5.90
2018-10-06T00:44:20.909Z,7.43
2018-10-06T00:46:49.033Z,6.60
2018-10-06T00:49:17.156Z,7.20
2018-10-06T00:51:45.304Z,6.53
2018-10-06T00:54:13.494Z,6.53
2018-10-06T00:56:41.601Z,6.50
2018-10-06T00:59:09.729Z,6.50
2018-10-06T01:01:37.829Z,6.37
2018-10-06T01:04:05.966Z,6.10
2018-10-06T01:06:34.104Z,5.73
2018-10-06T01:09:02.205Z,6.00
2018-10-06T01:11:30.291Z,5.90
2018-10-06T01:13:58.395Z,6.57
2018-10-06T01:16:26.551Z,6.93
2018-10-06T01:18:54.648Z,7.30
2018-10-06T01:21:22.751Z,6.47
2018-10-06T01:23:50.835Z,5.93
2018-10-06T01:26:18.936Z,6.20
2018-10-06T01:28:47.040Z,7.17
2018-10-06T01:31:15.196Z,7.20
2018-10-06T01:33:43.323Z,7.00
2018-10-06T01:36:11.422Z,7.77
2018-10-06T01:38:39.525Z,7.70
2018-10-06T01:41:07.626Z,8.23
2018-10-06T01:43:35.746Z,8.00
2018-10-06T01:46:03.828Z,7.50
2018-10-06T01:48:31.928Z,7.73
2018-10-06T01:51:00.042Z,7.93
2018-10-06T01:53:28.130Z,7.70
2018-10-06T01:55:56.249Z,7.27
2018-10-06T01:58:24.381Z,7.73
2018-10-06T02:00:52.552Z,7.43
2018-10-06T02:03:20.665Z,7.30
2018-10-06T02:05:48.844Z,7.93
2018-10-06T02:08:16.973Z,7.63
2018-10-06T02:10:45.164Z,8.53
2018-10-06T02:13:13.305Z,8.10
2018-10-06T02:15:41.401Z,9.07
2018-10-06T02:18:09.501Z,8.03
2018-10-06T02:20:37.601Z,8.40
2018-10-06T02:23:05.715Z,8.53
2018-10-06T02:25:33.801Z,9.30
2018-10-06T02:28:01.893Z,9.33
2018-10-06T02:30:30.018Z,8.60
2018-10-06T02:32:58.126Z,10.07
2018-10-06T02:35:26.310Z,8.47
2018-10-06T02:37:54.565Z,9.20
2018-10-06T02:40:22.658Z,8.50
2018-10-06T02:42:50.761Z,8.80
2018-10-06T02:45:18.832Z,7.67
2018-10-06T02:47:46.930Z,9.43
2018-10-06T02:50:15.105Z,9.77
2018-10-06T02:52:43.292Z,9.73
2018-10-06T02:55:11.406Z,10.57
2018-10-06T02:57:39.527Z,9.33
2018-10-06T03:00:07.649Z,9.57
2018-10-06T03:02:35.767Z,11.13
2018-10-06T03:05:03.876Z,10.30
2018-10-06T03:07:31.992Z,11.30
2018-10-06T03:10:00.077Z,9.97
2018-10-06T03:12:28.160Z,10.43
2018-10-06T03:14:56.354Z,10.33
2018-10-06T03:17:24.452Z,9.57
2018-10-06T03:19:52.551Z,10.10
2018-10-06T03:22:20.631Z,9.27
2018-10-06T03:24:48.768Z,10.30
2018-10-06T03:27:16.926Z,11.07
2018-10-06T03:29:45.033Z,11.07
2018-10-06T03:32:13.125Z,11.07
2018-10-06T03:34:41.242Z,10.43
2018-10-06T03:37:09.337Z,10.30
2018-10-06T03:39:37.436Z,10.87
2018-10-06T03:42:05.542Z,12.20
2018-10-06T03:44:33.651Z,11.17
2018-10-06T03:47:01.761Z,11.33
2018-10-06T03:49:29.879Z,10.63
2018-10-06T03:51:57.977Z,10.43
2018-10-06T03:54:26.081Z,10.33
2018-10-06T03:56:54.200Z,11.40
2018-10-06T03:59:23.379Z,10.83
2018-10-06T04:01:51.471Z,11.33
2018-10-06T04:04:19.593Z,10.33
2018-10-06T04:06:47.692Z,11.50
2018-10-06T04:09:15.812Z,11.53
2018-10-06T04:11:43.933Z,11.13
2018-10-06T04:14:12.054Z,10.87
2018-10-06T04:16:40.241Z,10.03
2018-10-06T04:19:08.320Z,11.30
2018-10-06T04:21:43.742Z,10.37
2018-10-06T04:24:11.852Z,10.43
2018-10-06T04:26:40.235Z,10.23
2018-10-06T04:29:08.724Z,11.80
2018-10-06T04:31:36.847Z,10.83
2018-10-06T04:34:04.939Z,11.00
2018-10-06T04:36:33.080Z,10.00
2018-10-06T04:39:01.424Z,10.53
2018-10-06T04:41:29.994Z,11.00
2018-10-06T04:43:58.137Z,11.00
2018-10-06T04:46:26.252Z,11.63
2018-10-06T04:48:54.336Z,11.23
2018-10-06T04:51:22.494Z,12.47
2018-10-06T04:53:50.634Z,11.70
2018-10-06T04:56:18.736Z,11.63
2018-10-06T04:58:46.833Z,11.50
2018-10-06T05:03:49.379Z,12.07
2018-10-06T05:06:17.488Z,10.20
2018-10-06T05:08:45.572Z,10.17
2018-10-06T05:11:13.790Z,10.67
2018-10-06T05:13:41.876Z,11.70
2018-10-06T05:16:09.984Z,10.77
2018-10-06T05:18:38.102Z,11.57
2018-10-06T05:21:06.592Z,12.07
2018-10-06T05:23:34.725Z,11.63
2018-10-06T05:26:02.798Z,11.63
2018-10-06T05:28:30.912Z,11.53
2018-10-06T05:30:59.004Z,11.10
2018-10-06T05:33:27.153Z,11.63
2018-10-06T05:35:55.244Z,10.10
2018-10-06T05:38:23.487Z,10.93
2018-10-06T05:40:51.596Z,11.40
2018-10-06T05:43:19.713Z,10.73
2018-10-06T05:45:47.804Z,11.43
2018-10-06T05:48:15.955Z,11.87
2018-10-06T05:50:44.099Z,11.90
2018-10-06T05:53:12.221Z,12.03
2018-10-06T05:55:40.320Z,11.80
2018-10-06T05:58:08.509Z,12.27
2018-10-06T06:00:36.602Z,12.53
2018-10-06T06:03:04.741Z,11.93
2018-10-06T06:05:32.840Z,12.50
2018-10-06T06:08:00.963Z,11.13
2018-10-06T06:10:29.097Z,11.50
2018-10-06T06:12:57.220Z,11.50
2018-10-06T06:15:25.403Z,11.20
2018-10-06T06:17:53.467Z,11.67
2018-10-06T06:20:21.561Z,11.83
2018-10-06T06:22:49.655Z,10.67
2018-10-06T06:25:17.752Z,9.90
2018-10-06T06:27:45.885Z,10.00
2018-10-06T06:30:14.011Z,9.47
2018-10-06T06:32:42.136Z,9.90
2018-10-06T06:35:10.371Z,10.60
2018-10-06T06:37:38.568Z,8.37
2018-10-06T06:40:06.814Z,9.50
2018-10-06T06:42:34.941Z,10.03
2018-10-06T06:45:03.053Z,8.53
2018-10-06T06:47:31.262Z,9.07
2018-10-06T06:49:59.440Z,8.33
2018-10-06T06:52:27.645Z,9.20
2018-10-06T06:54:56.062Z,9.40
2018-10-06T06:57:24.141Z,9.67
2018-10-06T06:59:52.261Z,8.38
2018-10-06T07:02:20.457Z,8.75
2018-10-06T07:04:48.625Z,8.78
2018-10-06T07:07:16.768Z,8.30
2018-10-06T07:09:44.968Z,8.13
2018-10-06T07:12:13.177Z,8.43
2018-10-06T07:14:41.432Z,8.40
2018-10-06T07:17:09.566Z,7.47
2018-10-06T07:19:37.756Z,8.00
2018-10-06T07:22:05.957Z,8.00
2018-10-06T07:24:34.109Z,7.90
2018-10-06T07:27:02.360Z,8.50
2018-10-06T07:29:30.493Z,7.60
2018-10-06T07:31:58.665Z,9.05
2018-10-06T07:34:26.993Z,8.63
2018-10-06T07:36:55.156Z,7.20
2018-10-06T07:39:23.331Z,8.08
2018-10-06T07:41:51.482Z,7.55
2018-10-06T07:44:20.396Z,7.22
2018-10-06T07:46:48.509Z,7.22
2018-10-06T07:49:16.742Z,6.42
2018-10-06T07:51:44.840Z,6.03
2018-10-06T07:54:13.016Z,5.95
2018-10-06T07:56:41.219Z,6.28
2018-10-06T07:59:09.447Z,6.05
2018-10-06T08:01:37.693Z,6.28
2018-10-06T08:04:06.005Z,6.35
2018-10-06T08:06:37.443Z,5.67
2018-10-06T08:09:07.093Z,6.33
2018-10-06T08:11:35.258Z,5.25
2018-10-06T08:14:03.352Z,5.70
2018-10-06T08:16:31.636Z,5.85
2018-10-06T08:19:00.073Z,5.90
2018-10-06T08:21:28.257Z,5.33
2018-10-06T08:23:56.400Z,5.42
2018-10-06T08:26:25.693Z,6.03
2018-10-06T08:28:53.932Z,5.30
2018-10-06T08:31:22.177Z,5.60
2018-10-06T08:33:50.330Z,5.50
2018-10-06T08:36:18.535Z,7.12
2018-10-06T08:38:46.789Z,8.05
2018-10-06T08:41:14.968Z,6.87
2018-10-06T08:43:43.125Z,7.60
2018-10-06T08:46:11.273Z,7.87
2018-10-06T08:48:39.529Z,7.37
2018-10-06T08:51:07.751Z,7.47
2018-10-06T08:53:35.942Z,6.50
2018-10-06T08:56:05.705Z,6.17
2018-10-06T08:58:34.021Z,6.08
2018-10-06T09:01:09.565Z,6.22
2018-10-06T09:03:37.918Z,5.47
2018-10-06T09:06:06.075Z,5.67
2018-10-06T09:08:36.251Z,5.35
2018-10-06T09:11:04.976Z,5.03
2018-10-06T09:13:33.218Z,5.00
2018-10-06T09:16:06.888Z,4.80
2018-10-06T09:18:35.113Z,4.25
2018-10-06T09:21:03.318Z,4.75
2018-10-06T09:23:31.466Z,4.55
2018-10-06T09:25:59.581Z,4.28
2018-10-06T09:28:29.652Z,4.55
2018-10-06T09:30:58.142Z,5.10
2018-10-06T09:33:26.652Z,5.00
2018-10-06T09:35:54.896Z,5.65
2018-10-06T09:38:23.155Z,4.60
2018-10-06T09:40:51.369Z,4.40
2018-10-06T09:43:19.681Z,4.28
2018-10-06T09:45:49.193Z,4.62
2018-10-06T09:48:18.726Z,4.03
2018-10-06T09:50:47.117Z,4.40
2018-10-06T09:53:15.245Z,4.25
2018-10-06T09:55:43.632Z,4.47
2018-10-06T09:58:11.774Z,4.25
2018-10-06T10:01:45.721Z,4.22
2018-10-06T10:04:15.379Z,3.87
2018-10-06T10:06:43.657Z,4.70
2018-10-06T10:09:13.451Z,4.30
2018-10-06T10:11:41.649Z,3.70
2018-10-06T10:14:10.348Z,4.15
2018-10-06T10:16:38.544Z,3.80
2018-10-06T10:19:06.886Z,3.72
2018-10-06T10:21:35.198Z,4.67
2018-10-06T10:24:03.368Z,3.98
2018-10-06T10:26:31.875Z,3.98
2018-10-06T10:29:00.163Z,3.92
2018-10-06T10:31:28.345Z,3.60
2018-10-06T10:33:57.813Z,3.83
2018-10-06T10:36:25.946Z,3.65
2018-10-06T10:38:54.130Z,4.30
2018-10-06T10:41:22.543Z,3.80
2018-10-06T10:43:51.025Z,3.83
2018-10-06T10:46:19.169Z,3.92
2018-10-06T10:48:47.418Z,4.75
2018-10-06T10:51:15.656Z,3.77
2018-10-06T10:53:43.935Z,4.40
2018-10-06T10:56:12.076Z,4.35
2018-10-06T10:58:40.285Z,4.42
2018-10-06T11:01:08.459Z,4.37
2018-10-06T11:03:36.641Z,4.40
2018-10-06T11:06:04.798Z,4.53
2018-10-06T11:08:32.964Z,4.80
2018-10-06T11:11:01.109Z,4.50
2018-10-06T11:13:29.300Z,4.30
2018-10-06T11:15:57.444Z,4.58
2018-10-06T11:18:25.550Z,4.70
2018-10-06T11:20:53.727Z,4.50
2018-10-06T11:23:21.953Z,3.70
2018-10-06T11:25:50.180Z,3.85
2018-10-06T11:28:18.353Z,4.30
2018-10-06T11:30:46.502Z,5.03
2018-10-06T11:33:14.760Z,4.72
2018-10-06T11:35:42.942Z,4.58
2018-10-06T11:38:11.231Z,4.42
2018-10-06T11:40:39.324Z,4.40
2018-10-06T11:43:07.512Z,4.55
2018-10-06T11:45:35.639Z,4.17
2018-10-06T11:48:03.774Z,4.12
2018-10-06T11:50:31.916Z,3.95
2018-10-06T11:53:00.064Z,4.78
2018-10-06T11:55:28.270Z,4.45
2018-10-06T11:57:56.410Z,4.35
2018-10-06T12:00:24.707Z,3.52
2018-10-06T12:02:53.188Z,3.90
2018-10-06T12:05:21.361Z,3.65
2018-10-06T12:07:49.588Z,4.00
2018-10-06T12:10:17.746Z,3.75
2018-10-06T12:12:45.917Z,4.22
2018-10-06T12:15:14.079Z,3.52
2018-10-06T12:17:42.368Z,4.10
2018-10-06T12:20:10.543Z,4.25
2018-10-06T12:22:38.716Z,3.85
2018-10-06T12:25:06.881Z,4.15
2018-10-06T12:27:35.026Z,3.50
2018-10-06T12:30:03.167Z,3.77
2018-10-06T12:32:31.347Z,3.55
2018-10-06T12:34:59.557Z,3.17
2018-10-06T12:37:27.638Z,3.90
2018-10-06T12:39:55.773Z,4.40
2018-10-06T12:42:23.976Z,3.95
2018-10-06T12:44:52.120Z,3.50
2018-10-06T12:47:20.392Z,3.60
2018-10-06T12:49:48.693Z,3.20
2018-10-06T12:52:16.833Z,3.45
2018-10-06T12:54:45.058Z,4.50
2018-10-06T12:57:13.196Z,4.00
2018-10-06T12:59:41.415Z,3.30
2018-10-06T13:02:09.581Z,3.05
2018-10-06T13:04:37.981Z,3.67
2018-10-06T13:07:06.175Z,4.03
2018-10-06T13:09:34.404Z,3.70
2018-10-06T13:12:02.629Z,3.92
2018-10-06T13:14:30.740Z,3.85
2018-10-06T13:16:58.918Z,3.80
2018-10-06T13:19:27.082Z,3.55
2018-10-06T13:21:55.214Z,3.85
2018-10-06T13:24:23.443Z,3.00
2018-10-06T13:26:51.654Z,3.95
2018-10-06T13:29:19.804Z,3.35
2018-10-06T13:31:48.012Z,3.85
2018-10-06T13:34:16.157Z,3.95
2018-10-06T13:36:44.379Z,4.62
2018-10-06T13:39:12.537Z,3.30
2018-10-06T13:41:40.762Z,3.00
2018-10-06T13:44:08.945Z,2.72
2018-10-06T13:46:37.162Z,3.02
2018-10-06T13:49:05.292Z,3.27
2018-10-06T13:51:33.443Z,3.00
2018-10-06T13:54:01.674Z,3.60
2018-10-06T13:56:29.916Z,3.22
2018-10-06T13:58:58.129Z,3.35
2018-10-06T14:01:26.258Z,3.40
2018-10-06T14:03:54.455Z,3.25
2018-10-06T14:06:22.584Z,4.00
2018-10-06T14:08:50.817Z,3.62
2018-10-06T14:11:19.174Z,3.33
2018-10-06T14:13:47.268Z,3.05
2018-10-06T14:16:15.466Z,3.37
2018-10-06T14:18:43.606Z,3.50
2018-10-06T14:21:11.734Z,3.52
2018-10-06T14:23:39.898Z,3.25
2018-10-06T14:26:08.142Z,3.30
2018-10-06T14:28:36.743Z,3.10
2018-10-06T14:31:04.914Z,3.00
2018-10-06T14:33:33.110Z,2.70
2018-10-06T14:36:01.281Z,3.35
2018-10-06T14:38:29.562Z,3.45
2018-10-06T14:40:58.344Z,3.55
2018-10-06T14:43:26.571Z,3.30
2018-10-06T14:45:54.735Z,3.20
2018-10-06T14:48:22.924Z,3.22
2018-10-06T14:50:51.070Z,3.00
2018-10-06T14:53:19.215Z,3.02
2018-10-06T14:55:47.518Z,2.50
2018-10-06T14:58:15.872Z,2.90
2018-10-06T15:00:44.047Z,2.62
2018-10-06T15:03:12.220Z,3.10
2018-10-06T15:05:40.344Z,2.95
2018-10-06T15:08:08.527Z,2.83
2018-10-06T15:10:36.668Z,3.10
2018-10-06T15:13:04.841Z,3.00
2018-10-06T15:15:32.998Z,2.30
2018-10-06T15:18:01.185Z,2.75
2018-10-06T15:20:29.369Z,2.80
2018-10-06T15:22:57.552Z,3.55
2018-10-06T15:25:25.810Z,3.02
2018-10-06T15:27:54.063Z,3.00
2018-10-06T15:30:22.173Z,3.12
2018-10-06T15:32:50.309Z,3.27
2018-10-06T15:35:18.486Z,3.30
2018-10-06T15:37:46.658Z,3.15
2018-10-06T15:40:14.850Z,2.85
2018-10-06T15:42:43.117Z,3.05
2018-10-06T15:45:11.194Z,2.37
2018-10-06T15:47:39.379Z,2.98
2018-10-06T15:50:07.593Z,3.02
2018-10-06T15:52:35.791Z,3.27
2018-10-06T15:55:03.979Z,3.15
2018-10-06T15:57:32.131Z,2.90
2018-10-06T16:00:00.281Z,3.80
2018-10-06T16:02:28.506Z,3.40
2018-10-06T16:04:56.596Z,3.08
2018-10-06T16:07:24.842Z,4.30
2018-10-06T16:09:53.102Z,3.85
2018-10-06T16:12:21.410Z,3.77
2018-10-06T16:14:49.559Z,3.40
2018-10-06T16:17:17.743Z,3.02
2018-10-06T16:19:45.888Z,3.40
2018-10-06T16:22:14.119Z,3.87
2018-10-06T16:24:42.278Z,3.30
2018-10-06T16:27:10.518Z,3.70
2018-10-06T16:29:38.644Z,4.15
2018-10-06T16:32:06.822Z,3.70
2018-10-06T16:34:34.972Z,3.58
2018-10-06T16:37:03.205Z,3.75
2018-10-06T16:39:31.386Z,3.40
2018-10-06T16:41:59.573Z,3.50
2018-10-06T16:44:27.778Z,2.98
2018-10-06T16:46:55.902Z,3.45
2018-10-06T16:49:24.038Z,3.83
2018-10-06T16:51:52.244Z,3.83
2018-10-06T16:54:26.064Z,4.22
2018-10-06T16:56:56.291Z,3.70
2018-10-06T16:59:29.537Z,5.80
2018-10-06T17:01:59.224Z,4.25
2018-10-06T17:04:35.503Z,5.35
2018-10-06T17:07:05.158Z,3.95
2018-10-06T17:09:34.552Z,4.50
2018-10-06T17:12:03.511Z,4.85
2018-10-06T17:14:32.915Z,6.03
2018-10-06T17:17:05.575Z,5.30
2018-10-06T17:19:33.782Z,7.00
2018-10-06T17:22:03.746Z,7.87
2018-10-06T17:27:09.755Z,12.55
2018-10-06T17:29:43.068Z,17.02
2018-10-06T17:32:16.013Z,19.00
2018-10-06T17:34:47.881Z,17.82
2018-10-06T17:37:20.132Z,15.58
2018-10-06T17:39:58.871Z,14.23
2018-10-06T17:42:29.440Z,13.83
2018-10-06T17:44:59.842Z,13.88
2018-10-06T17:47:30.130Z,13.25
2018-10-06T17:50:03.907Z,12.90
2018-10-06T17:52:34.060Z,12.73
2018-10-06T17:55:06.523Z,12.03
2018-10-06T17:57:37.027Z,12.00
2018-10-06T18:00:10.453Z,11.35
2018-10-06T18:02:42.540Z,11.03
2018-10-06T18:05:12.920Z,13.10
2018-10-06T18:07:43.892Z,11.78
2018-10-06T18:10:15.346Z,11.90
2018-10-06T18:12:47.750Z,10.75
2018-10-06T18:18:02.232Z,13.17
2018-10-06T18:20:31.608Z,13.20
2018-10-06T18:23:03.142Z,14.60
2018-10-06T18:25:33.818Z,13.48
2018-10-06T18:28:05.221Z,14.83
2018-10-06T18:30:35.445Z,14.77
2018-10-06T18:33:07.170Z,16.70
2018-10-06T18:35:37.393Z,19.77
2018-10-06T18:38:17.802Z,16.77
2018-10-06T18:40:48.121Z,14.47
2018-10-06T18:43:26.420Z,14.27
2018-10-06T18:45:55.207Z,15.53
2018-10-06T18:48:23.399Z,14.90
2018-10-06T18:50:51.585Z,14.63
2018-10-06T18:53:22.025Z,15.53
2018-10-06T18:55:50.157Z,13.83
2018-10-06T18:58:19.514Z,12.77
2018-10-06T19:00:47.970Z,14.17
2018-10-06T19:03:23.109Z,15.27
2018-10-06T19:05:51.516Z,13.20
2018-10-06T19:08:19.673Z,12.90
2018-10-06T19:10:47.859Z,12.13
2018-10-06T19:13:16.060Z,12.97
2018-10-06T19:15:44.548Z,13.23
2018-10-06T19:18:12.753Z,11.93
2018-10-06T19:20:40.977Z,12.00
2018-10-06T19:23:09.261Z,11.83
2018-10-06T19:25:37.477Z,12.30
2018-10-06T19:28:05.873Z,12.70
2018-10-06T19:30:34.106Z,12.40
2018-10-06T19:33:02.272Z,12.60
2018-10-06T19:35:30.474Z,13.07
2018-10-06T19:37:58.627Z,12.23
2018-10-06T19:40:26.788Z,13.87
2018-10-06T19:42:54.947Z,12.23
2018-10-06T19:45:23.107Z,11.30
2018-10-06T19:47:51.300Z,11.57
2018-10-06T19:50:19.669Z,11.17
2018-10-06T19:52:47.940Z,12.90
2018-10-06T19:55:16.383Z,13.83
2018-10-06T19:57:44.597Z,14.23
2018-10-06T20:00:12.808Z,14.83
2018-10-06T20:02:40.969Z,15.23
2018-10-06T20:05:09.113Z,16.13
2018-10-06T20:07:37.293Z,14.77
2018-10-06T20:10:05.594Z,14.23
2018-10-06T20:12:33.825Z,14.67
2018-10-06T20:15:01.968Z,13.23
2018-10-06T20:17:30.157Z,13.00
2018-10-06T20:19:58.345Z,13.37
2018-10-06T20:22:26.565Z,15.90
2018-10-06T20:24:54.717Z,14.63
2018-10-06T20:27:22.891Z,14.83
2018-10-06T20:29:51.038Z,14.77
2018-10-06T20:32:19.231Z,15.10
2018-10-06T20:34:47.380Z,13.83
2018-10-06T20:37:15.621Z,13.47
2018-10-06T20:39:43.761Z,14.60
2018-10-06T20:42:11.943Z,13.93
2018-10-06T20:44:40.096Z,18.27
2018-10-06T20:47:08.252Z,19.20
2018-10-06T20:49:36.381Z,21.33
2018-10-06T20:52:04.512Z,21.67
2018-10-06T20:54:32.685Z,22.57
2018-10-06T20:57:00.916Z,20.83
2018-10-06T20:59:29.093Z,22.67
2018-10-06T21:01:57.319Z,22.07
2018-10-06T21:04:25.579Z,22.50
2018-10-06T21:06:53.725Z,24.30
2018-10-06T21:09:21.877Z,25.47
2018-10-06T21:11:50.016Z,25.00
2018-10-06T21:14:18.208Z,24.13
2018-10-06T21:16:46.414Z,22.80
2018-10-06T21:19:14.584Z,21.37
2018-10-06T21:21:42.743Z,20.23
2018-10-06T21:24:10.931Z,18.03
2018-10-06T21:26:39.116Z,16.60
2018-10-06T21:29:07.352Z,17.90
2018-10-06T21:31:35.455Z,15.80
2018-10-06T21:34:03.630Z,15.73
2018-10-06T21:36:31.769Z,15.17
2018-10-06T21:38:59.928Z,15.07
2018-10-06T21:41:28.109Z,15.00
2018-10-06T21:43:56.269Z,14.20
2018-10-06T21:46:24.468Z,14.43
2018-10-06T21:48:52.833Z,14.53
2018-10-06T21:51:21.157Z,14.37
2018-10-06T21:53:49.347Z,15.13
2018-10-06T21:56:17.578Z,14.43
2018-10-06T21:58:45.798Z,13.33
2018-10-06T22:01:14.701Z,12.40
2018-10-06T22:03:49.563Z,12.00
2018-10-06T22:06:17.709Z,11.97
2018-10-06T22:08:45.856Z,12.17
2018-10-06T22:11:14.049Z,9.93
2018-10-06T22:13:42.288Z,11.83
2018-10-06T22:16:10.461Z,11.73
2018-10-06T22:18:38.640Z,12.17
2018-10-06T22:21:07.038Z,11.40
2018-10-06T22:23:35.599Z,11.47
2018-10-06T22:26:03.790Z,11.97
2018-10-06T22:28:32.077Z,12.60
2018-10-06T22:31:00.736Z,10.83
2018-10-06T22:33:28.925Z,11.20
2018-10-06T22:35:57.123Z,11.77
2018-10-06T22:38:25.316Z,10.83
2018-10-06T22:40:53.481Z,12.23
2018-10-06T22:43:21.709Z,12.20
2018-10-06T22:45:49.897Z,12.40
2018-10-06T22:48:18.241Z,13.67
2018-10-06T22:50:46.381Z,13.77
2018-10-06T22:53:14.554Z,14.40
2018-10-06T22:55:42.753Z,14.93
2018-10-06T22:58:10.903Z,17.10
2018-10-06T23:00:39.090Z,15.70
2018-10-06T23:03:07.587Z,15.70
2018-10-06T23:05:35.729Z,16.23
2018-10-06T23:08:03.958Z,16.93
2018-10-06T23:10:32.184Z,16.70
2018-10-06T23:13:00.434Z,17.87
2018-10-06T23:15:28.744Z,19.13
2018-10-06T23:17:57.009Z,19.73
2018-10-06T23:20:25.308Z,20.27
2018-10-06T23:22:53.472Z,20.23
2018-10-06T23:25:21.638Z,22.07
2018-10-06T23:27:49.889Z,24.13
2018-10-06T23:30:18.089Z,25.40
2018-10-06T23:32:46.293Z,25.70
2018-10-06T23:35:14.442Z,27.77
2018-10-06T23:37:42.600Z,29.40
2018-10-06T23:40:10.982Z,31.23
2018-10-06T23:42:39.200Z,33.03
2018-10-06T23:45:08.071Z,34.27
2018-10-06T23:47:36.585Z,37.37
2018-10-06T23:50:05.053Z,39.20
2018-10-06T23:52:33.218Z,39.10
2018-10-06T23:55:01.423Z,41.23
2018-10-06T23:57:30.509Z,44.20
2018-10-06T23:59:59.117Z,46.20
